createdAt,value
2022-08-25T00:02:56.641Z,8.57
2022-08-25T00:06:25.169Z,10.13
2022-08-25T00:09:52.077Z,8.07
2022-08-25T00:13:18.220Z,8.40
2022-08-25T00:16:44.275Z,7.65
2022-08-25T00:20:12.188Z,8.18
2022-08-25T00:23:38.209Z,7.93
2022-08-25T00:27:04.335Z,7.82
2022-08-25T00:30:31.411Z,7.70
2022-08-25T00:33:59.967Z,7.30
2022-08-25T00:37:26.208Z,6.97
2022-08-25T00:41:06.266Z,7.47
2022-08-25T00:44:44.282Z,6.75
2022-08-25T00:48:11.751Z,5.80
2022-08-25T00:55:16.250Z,5.38
2022-08-25T00:58:44.862Z,4.35
2022-08-25T01:02:14.012Z,4.50
2022-08-25T01:05:41.581Z,4.57
2022-08-25T01:12:34.538Z,3.72
2022-08-25T01:16:01.738Z,3.95
2022-08-25T01:19:29.296Z,4.15
2022-08-25T01:26:30.508Z,6.68
2022-08-25T01:29:58.373Z,7.70
2022-08-25T01:36:50.067Z,8.20
2022-08-25T01:40:17.394Z,7.25
2022-08-25T01:47:11.187Z,8.82
2022-08-25T01:50:38.583Z,8.75
2022-08-25T01:54:18.467Z,8.60
2022-08-25T01:57:45.042Z,8.25
2022-08-25T02:01:13.820Z,8.73
2022-08-25T02:04:44.613Z,9.25
2022-08-25T02:08:11.908Z,9.23
2022-08-25T02:11:41.316Z,8.75
2022-08-25T02:15:08.532Z,9.18
2022-08-25T02:18:34.667Z,9.00
2022-08-25T02:22:01.217Z,8.88
2022-08-25T02:25:27.586Z,8.07
2022-08-25T02:28:53.650Z,8.02
2022-08-25T02:32:20.776Z,8.73
2022-08-25T02:35:47.432Z,8.63
2022-08-25T02:39:13.632Z,8.45
2022-08-25T02:42:39.892Z,8.38
2022-08-25T02:46:09.584Z,8.02
2022-08-25T02:49:36.907Z,8.25
2022-08-25T02:53:02.972Z,8.25
2022-08-25T02:56:30.348Z,8.50
2022-08-25T02:59:56.242Z,8.00
2022-08-25T03:03:22.684Z,8.27
2022-08-25T03:06:48.844Z,7.43
2022-08-25T03:10:16.042Z,7.60
2022-08-25T03:13:42.170Z,7.78
2022-08-25T03:17:09.109Z,6.80
2022-08-25T03:20:35.950Z,7.43
2022-08-25T03:24:02.491Z,6.15
2022-08-25T03:27:30.636Z,6.10
2022-08-25T03:30:56.474Z,6.55
2022-08-25T03:34:24.122Z,6.90
2022-08-25T03:37:51.496Z,6.80
2022-08-25T03:41:20.212Z,6.97
2022-08-25T03:44:49.392Z,6.30
2022-08-25T03:48:16.686Z,6.10
2022-08-25T03:51:53.518Z,6.35
2022-08-25T03:55:24.154Z,7.05
2022-08-25T03:58:51.729Z,6.80
2022-08-25T04:02:20.046Z,7.82
2022-08-25T04:05:46.436Z,8.57
2022-08-25T04:09:12.889Z,8.35
2022-08-25T04:12:39.573Z,5.30
2022-08-25T04:16:15.432Z,4.40
2022-08-25T04:19:41.991Z,4.45
2022-08-25T04:23:11.538Z,4.67
2022-08-25T04:26:42.651Z,4.60
2022-08-25T04:30:09.121Z,5.40
2022-08-25T04:33:36.604Z,6.05
2022-08-25T04:40:29.483Z,7.22
2022-08-25T04:43:57.619Z,7.07
2022-08-25T04:47:26.336Z,6.18
2022-08-25T04:50:54.368Z,3.95
2022-08-25T04:54:22.383Z,3.20
2022-08-25T04:57:49.027Z,2.97
2022-08-25T05:01:17.452Z,2.70
2022-08-25T05:04:44.305Z,2.90
2022-08-25T05:08:10.600Z,3.08
2022-08-25T05:11:40.168Z,2.65
2022-08-25T05:15:27.135Z,2.83
2022-08-25T05:18:53.982Z,2.70
2022-08-25T05:22:21.387Z,2.90
2022-08-25T05:29:13.441Z,4.15
2022-08-25T05:32:39.375Z,4.82
2022-08-25T05:36:06.360Z,4.22
2022-08-25T05:39:34.033Z,3.33
2022-08-25T05:43:00.022Z,3.45
2022-08-25T05:46:26.148Z,5.10
2022-08-25T05:49:52.970Z,4.70
2022-08-25T05:53:18.820Z,4.68
2022-08-25T05:56:46.026Z,6.03
2022-08-25T06:00:12.521Z,5.90
2022-08-25T06:03:39.290Z,5.33
2022-08-25T06:07:06.088Z,4.60
2022-08-25T06:10:32.074Z,4.47
2022-08-25T06:13:59.301Z,4.50
2022-08-25T06:17:25.299Z,4.55
2022-08-25T06:20:53.267Z,4.47
2022-08-25T06:24:19.848Z,4.13
2022-08-25T06:27:46.086Z,4.53
2022-08-25T06:31:13.914Z,3.60
2022-08-25T06:34:39.802Z,4.18
2022-08-25T06:38:05.822Z,4.45
2022-08-25T06:41:37.019Z,5.68
2022-08-25T06:45:03.989Z,4.93
2022-08-25T06:48:30.101Z,4.82
2022-08-25T06:51:56.861Z,5.13
2022-08-25T06:55:23.005Z,5.13
2022-08-25T06:58:53.897Z,5.50
2022-08-25T07:02:21.877Z,5.82
2022-08-25T07:05:52.975Z,5.97
2022-08-25T07:09:20.011Z,6.43
2022-08-25T07:12:45.898Z,6.40
2022-08-25T07:16:11.817Z,7.25
2022-08-25T07:19:37.970Z,7.45
2022-08-25T07:23:04.276Z,7.82
2022-08-25T07:26:37.822Z,7.03
2022-08-25T07:30:08.295Z,9.43
2022-08-25T07:33:34.415Z,8.38
2022-08-25T07:37:05.178Z,9.10
2022-08-25T07:40:36.470Z,9.45
2022-08-25T07:44:04.946Z,8.13
2022-08-25T07:47:32.107Z,8.02
2022-08-25T07:54:33.809Z,7.22
2022-08-25T07:58:01.580Z,7.70
2022-08-25T08:01:28.215Z,8.13
2022-08-25T08:04:54.387Z,8.10
2022-08-25T08:08:22.317Z,7.20
2022-08-25T08:11:53.891Z,6.80
2022-08-25T08:15:22.383Z,8.50
2022-08-25T08:18:48.691Z,8.85
2022-08-25T08:22:19.253Z,10.40
2022-08-25T08:25:46.150Z,9.02
2022-08-25T08:29:13.077Z,8.70
2022-08-25T08:36:26.168Z,11.70
2022-08-25T08:39:53.207Z,13.45
2022-08-25T08:46:58.128Z,11.90
2022-08-25T08:50:58.466Z,12.32
2022-08-25T08:54:34.176Z,12.20
2022-08-25T08:58:12.391Z,11.88
2022-08-25T09:02:00.433Z,11.75
2022-08-25T09:05:55.528Z,11.32
2022-08-25T09:09:24.875Z,11.10
2022-08-25T09:13:18.959Z,9.65
2022-08-25T09:17:02.231Z,10.00
2022-08-25T09:20:40.982Z,10.15
2022-08-25T09:24:06.873Z,10.02
2022-08-25T09:27:41.727Z,10.10
2022-08-25T09:31:17.394Z,10.68
2022-08-25T09:34:44.147Z,10.63
2022-08-25T09:38:11.301Z,11.07
2022-08-25T09:41:47.110Z,11.02
2022-08-25T09:45:34.302Z,12.07
2022-08-25T09:49:12.011Z,10.98
2022-08-25T09:52:41.334Z,11.05
2022-08-25T09:56:10.290Z,11.45
2022-08-25T09:59:38.462Z,10.85
2022-08-25T10:07:21.819Z,11.02
2022-08-25T10:10:54.666Z,11.13
2022-08-25T10:14:31.359Z,11.00
2022-08-25T10:18:18.292Z,11.63
2022-08-25T10:22:12.815Z,10.65
2022-08-25T10:25:57.853Z,10.77
2022-08-25T10:33:15.849Z,10.07
2022-08-25T10:37:11.180Z,10.43
2022-08-25T10:41:05.211Z,10.27
2022-08-25T10:44:56.350Z,9.98
2022-08-25T10:48:52.971Z,10.35
2022-08-25T10:52:51.312Z,9.57
2022-08-25T10:56:26.974Z,9.75
2022-08-25T11:00:37.760Z,9.82
2022-08-25T11:04:10.731Z,9.32
2022-08-25T11:07:46.168Z,9.70
2022-08-25T11:11:40.491Z,9.50
2022-08-25T11:15:15.454Z,8.65
2022-08-25T11:18:54.686Z,8.70
2022-08-25T11:23:00.921Z,9.25
2022-08-25T11:26:38.485Z,8.57
2022-08-25T11:30:17.521Z,8.80
2022-08-25T11:33:50.168Z,9.15
2022-08-25T11:37:30.043Z,8.48
2022-08-25T11:41:11.036Z,9.23
2022-08-25T11:44:55.208Z,8.32
2022-08-25T11:49:02.589Z,8.52
2022-08-25T11:52:34.730Z,8.00
2022-08-25T11:56:32.767Z,9.23
2022-08-25T12:00:15.251Z,7.45
2022-08-25T12:03:44.303Z,8.82
2022-08-25T12:07:17.736Z,7.60
2022-08-25T12:10:59.097Z,7.60
2022-08-25T12:14:39.091Z,7.85
2022-08-25T12:18:25.583Z,7.88
2022-08-25T12:21:55.849Z,7.30
2022-08-25T12:25:39.719Z,7.03
2022-08-25T12:29:28.301Z,6.90
2022-08-25T12:33:12.061Z,6.60
2022-08-25T12:36:59.637Z,6.70
2022-08-25T12:40:38.809Z,6.53
2022-08-25T12:44:35.200Z,6.72
2022-08-25T12:48:28.254Z,6.82
2022-08-25T12:52:18.764Z,7.50
2022-08-25T12:55:52.658Z,7.20
2022-08-25T12:59:33.092Z,7.03
2022-08-25T13:03:50.574Z,7.68
2022-08-25T13:07:51.227Z,7.63
2022-08-25T13:11:46.840Z,7.53
2022-08-25T13:15:26.550Z,8.35
2022-08-25T13:18:52.373Z,7.30
2022-08-25T13:22:18.902Z,7.63
2022-08-25T13:29:52.393Z,7.45
2022-08-25T13:33:25.269Z,7.07
2022-08-25T13:37:14.940Z,7.68
2022-08-25T13:40:43.208Z,7.75
2022-08-25T13:44:13.245Z,7.80
2022-08-25T13:47:45.686Z,7.20
2022-08-25T13:51:31.144Z,7.75
2022-08-25T13:55:01.627Z,7.10
2022-08-25T13:58:38.683Z,7.13
2022-08-25T14:02:15.238Z,7.55
2022-08-25T14:05:46.940Z,7.75
2022-08-25T14:09:47.011Z,6.95
2022-08-25T14:13:31.003Z,7.55
2022-08-25T14:17:22.331Z,7.47
2022-08-25T14:20:56.787Z,7.45
2022-08-25T14:24:24.390Z,7.93
2022-08-25T14:28:16.367Z,7.57
2022-08-25T14:31:46.328Z,8.35
2022-08-25T14:35:17.423Z,7.65
2022-08-25T14:38:47.076Z,7.72
2022-08-25T14:45:52.871Z,8.32
2022-08-25T14:49:24.835Z,7.57
2022-08-25T14:52:52.815Z,8.20
2022-08-25T14:56:24.175Z,7.85
2022-08-25T14:59:53.693Z,7.72
2022-08-25T15:03:28.579Z,8.27
2022-08-25T15:06:58.646Z,8.32
2022-08-25T15:10:25.266Z,8.02
2022-08-25T15:13:51.378Z,7.45
2022-08-25T15:17:22.647Z,7.72
2022-08-25T15:20:50.419Z,7.50
2022-08-25T15:24:18.217Z,7.60
2022-08-25T15:27:54.807Z,7.75
2022-08-25T15:31:21.702Z,8.38
2022-08-25T15:34:47.706Z,7.38
2022-08-25T15:38:15.774Z,7.88
2022-08-25T15:41:43.860Z,7.40
2022-08-25T15:45:11.805Z,7.50
2022-08-25T15:48:37.583Z,7.82
2022-08-25T15:52:05.953Z,7.90
2022-08-25T15:55:31.904Z,7.40
2022-08-25T15:58:59.183Z,8.15
2022-08-25T16:02:26.111Z,8.30
2022-08-25T16:05:54.485Z,8.82
2022-08-25T16:09:22.820Z,7.78
2022-08-25T16:12:50.148Z,7.40
2022-08-25T16:16:16.570Z,8.65
2022-08-25T16:19:42.824Z,8.25
2022-08-25T16:23:10.522Z,8.38
2022-08-25T16:26:48.139Z,8.33
2022-08-25T16:30:17.573Z,8.32
2022-08-25T16:33:47.583Z,8.95
2022-08-25T16:37:15.180Z,7.57
2022-08-25T16:40:42.649Z,9.18
2022-08-25T16:44:11.300Z,8.75
2022-08-25T16:47:38.608Z,8.98
2022-08-25T16:51:08.994Z,9.55
2022-08-25T16:54:53.392Z,9.40
2022-08-25T16:58:19.868Z,10.00
2022-08-25T17:01:46.009Z,8.27
2022-08-25T17:05:12.653Z,8.97
2022-08-25T17:08:39.022Z,9.80
2022-08-25T17:12:11.641Z,8.95
2022-08-25T17:15:42.208Z,8.82
2022-08-25T17:19:11.724Z,9.95
2022-08-25T17:22:38.798Z,10.25
2022-08-25T17:26:05.870Z,10.05
2022-08-25T17:29:33.763Z,10.25
2022-08-25T17:33:00.665Z,9.65
2022-08-25T17:36:27.351Z,9.35
2022-08-25T17:39:56.719Z,10.32
2022-08-25T17:43:29.865Z,9.45
2022-08-25T17:46:56.546Z,10.27
2022-08-25T17:50:24.790Z,11.00
2022-08-25T17:53:53.057Z,10.35
2022-08-25T17:57:20.177Z,11.98
2022-08-25T18:00:47.348Z,11.38
2022-08-25T18:04:17.322Z,13.07
2022-08-25T18:07:45.357Z,11.68
2022-08-25T18:11:11.834Z,11.48
2022-08-25T18:14:38.354Z,11.88
2022-08-25T18:18:04.510Z,11.10
2022-08-25T18:21:31.023Z,11.82
2022-08-25T18:24:57.532Z,11.38
2022-08-25T18:28:23.328Z,10.75
2022-08-25T18:31:50.403Z,12.32
2022-08-25T18:35:21.231Z,11.77
2022-08-25T18:39:08.921Z,11.40
2022-08-25T18:42:40.428Z,13.15
2022-08-25T18:46:08.401Z,12.10
2022-08-25T18:49:37.690Z,13.82
2022-08-25T18:53:04.050Z,10.93
2022-08-25T18:56:32.308Z,11.18
2022-08-25T18:59:58.822Z,12.70
2022-08-25T19:03:25.699Z,13.48
2022-08-25T19:06:51.870Z,13.85
2022-08-25T19:10:19.023Z,12.40
2022-08-25T19:13:45.453Z,13.57
2022-08-25T19:17:13.173Z,12.10
2022-08-25T19:20:39.759Z,11.20
2022-08-25T19:24:08.010Z,13.32
2022-08-25T19:27:34.414Z,11.90
2022-08-25T19:31:05.112Z,13.27
2022-08-25T19:34:34.054Z,12.93
2022-08-25T19:38:06.993Z,13.93
2022-08-25T19:41:47.109Z,13.43
2022-08-25T19:45:14.691Z,13.57
2022-08-25T19:48:41.113Z,13.38
2022-08-25T19:52:10.363Z,13.85
2022-08-25T19:55:42.984Z,12.23
2022-08-25T19:59:09.426Z,12.75
2022-08-25T20:02:35.411Z,12.40
2022-08-25T20:06:01.475Z,13.43
2022-08-25T20:09:38.976Z,15.05
2022-08-25T20:13:08.424Z,14.43
2022-08-25T20:16:35.095Z,13.90
2022-08-25T20:20:02.285Z,13.75
2022-08-25T20:23:49.924Z,13.88
2022-08-25T20:27:22.705Z,13.52
2022-08-25T20:30:49.139Z,13.63
2022-08-25T20:34:15.721Z,12.95
2022-08-25T20:37:42.575Z,12.85
2022-08-25T20:41:10.262Z,12.50
2022-08-25T20:44:41.896Z,12.52
2022-08-25T20:48:09.206Z,13.70
2022-08-25T20:51:37.024Z,13.38
2022-08-25T20:55:03.828Z,12.77
2022-08-25T20:58:30.079Z,13.00
2022-08-25T21:01:56.021Z,13.63
2022-08-25T21:05:25.321Z,13.27
2022-08-25T21:08:51.246Z,14.15
2022-08-25T21:12:17.017Z,13.27
2022-08-25T21:15:48.668Z,12.63
2022-08-25T21:19:16.186Z,12.80
2022-08-25T21:22:42.522Z,13.60
2022-08-25T21:26:13.023Z,13.53
2022-08-25T21:29:38.918Z,12.98
2022-08-25T21:33:10.819Z,13.00
2022-08-25T21:36:40.223Z,13.30
2022-08-25T21:40:06.937Z,13.70
2022-08-25T21:43:34.456Z,14.05
2022-08-25T21:47:01.473Z,14.23
2022-08-25T21:50:27.320Z,13.82
2022-08-25T21:54:09.090Z,14.60
2022-08-25T21:57:42.901Z,14.68
2022-08-25T22:01:12.276Z,13.68
2022-08-25T22:04:39.633Z,14.45
2022-08-25T22:08:06.516Z,13.70
2022-08-25T22:11:35.924Z,13.95
2022-08-25T22:15:03.311Z,13.35
2022-08-25T22:18:30.153Z,14.98
2022-08-25T22:21:56.681Z,13.88
2022-08-25T22:25:25.088Z,14.50
2022-08-25T22:28:51.499Z,15.50
2022-08-25T22:32:17.847Z,14.90
2022-08-25T22:35:43.782Z,14.83
2022-08-25T22:39:10.220Z,16.17
2022-08-25T22:42:36.419Z,16.23
2022-08-25T22:46:03.187Z,14.93
2022-08-25T22:49:29.853Z,15.07
2022-08-25T22:52:56.626Z,14.00
2022-08-25T22:56:29.962Z,14.73
2022-08-25T22:59:56.902Z,14.27
2022-08-25T23:03:22.781Z,14.77
2022-08-25T23:06:48.666Z,14.93
2022-08-25T23:10:14.955Z,13.93
2022-08-25T23:13:41.935Z,12.75
2022-08-25T23:17:08.865Z,12.73
2022-08-25T23:20:53.457Z,12.88
2022-08-25T23:24:29.090Z,12.50
2022-08-25T23:27:57.102Z,12.95
2022-08-25T23:31:23.628Z,11.88
2022-08-25T23:34:49.804Z,12.75
2022-08-25T23:38:15.552Z,12.13
2022-08-25T23:41:42.173Z,12.02
2022-08-25T23:45:08.148Z,12.05
2022-08-25T23:48:35.708Z,12.57
2022-08-25T23:52:02.267Z,13.32
2022-08-25T23:55:34.007Z,12.82
2022-08-25T23:59:00.109Z,12.18
